createdAt,value
2022-09-14T00:00:16.027Z,99631.56
2022-09-14T00:02:44.470Z,99643.56
2022-09-14T00:05:12.412Z,99638.31
2022-09-14T00:07:40.096Z,99633.72
2022-09-14T00:10:07.776Z,99625.53
2022-09-14T00:12:35.442Z,99622.78
2022-09-14T00:15:03.119Z,99624.44
2022-09-14T00:17:31.148Z,99634.56
2022-09-14T00:19:58.879Z,99633.72
2022-09-14T00:22:26.542Z,99622.78
2022-09-14T00:24:54.393Z,99618.16
2022-09-14T00:27:22.061Z,99625.28
2022-09-14T00:29:49.903Z,99617.31
2022-09-14T00:32:17.592Z,99616.47
2022-09-14T00:34:45.380Z,99609.94
2022-09-14T00:37:13.187Z,99614.59
2022-09-14T00:39:40.997Z,99605.53
2022-09-14T00:42:08.663Z,99612.69
2022-09-14T00:44:36.327Z,99609.94
2022-09-14T00:47:03.982Z,99608.06
2022-09-14T00:49:31.746Z,99605.31
2022-09-14T00:51:59.463Z,99608.06
2022-09-14T00:54:27.299Z,99602.59
2022-09-14T00:56:55.030Z,99595.47
2022-09-14T00:59:22.722Z,99592.50
2022-09-14T01:01:50.460Z,99592.50
2022-09-14T01:04:18.317Z,99590.81
2022-09-14T01:06:46.030Z,99590.81
2022-09-14T01:09:13.913Z,99583.66
2022-09-14T01:11:41.664Z,99582.00
2022-09-14T01:14:09.347Z,99580.94
2022-09-14T01:16:37.059Z,99573.19
2022-09-14T01:19:04.812Z,99587.25
2022-09-14T01:21:33.061Z,99584.53
2022-09-14T01:24:00.829Z,99585.81
2022-09-14T01:26:28.483Z,99589.13
2022-09-14T01:28:56.223Z,99592.72
2022-09-14T01:31:23.956Z,99597.13
2022-09-14T01:33:51.639Z,99588.31
2022-09-14T01:36:19.564Z,99592.09
2022-09-14T01:38:47.218Z,99595.66
2022-09-14T01:41:14.897Z,99588.53
2022-09-14T01:43:42.601Z,99593.75
2022-09-14T01:46:10.329Z,99580.34
2022-09-14T01:48:38.121Z,99591.03
2022-09-14T01:51:05.867Z,99586.41
2022-09-14T01:53:34.865Z,99583.91
2022-09-14T01:56:02.649Z,99586.63
2022-09-14T01:58:30.985Z,99587.47
2022-09-14T02:00:58.765Z,99590.41
2022-09-14T02:03:26.555Z,99586.41
2022-09-14T02:05:54.894Z,99583.91
2022-09-14T02:08:22.536Z,99575.09
2022-09-14T02:10:50.225Z,99574.63
2022-09-14T02:13:17.857Z,99570.25
2022-09-14T02:15:45.534Z,99574.00
2022-09-14T02:18:13.435Z,99571.91
2022-09-14T02:20:41.191Z,99566.88
2022-09-14T02:23:08.876Z,99565.59
2022-09-14T02:25:37.571Z,99559.50
2022-09-14T02:28:05.302Z,99562.03
2022-09-14T02:30:33.934Z,99554.88
2022-09-14T02:33:01.663Z,99551.31
2022-09-14T02:35:29.334Z,99548.59
2022-09-14T02:37:56.991Z,99551.56
2022-09-14T02:40:24.726Z,99557.63
2022-09-14T02:42:52.650Z,99560.78
2022-09-14T02:45:24.787Z,99554.47
2022-09-14T02:47:55.336Z,99552.78
2022-09-14T02:50:23.116Z,99545.66
2022-09-14T02:52:50.979Z,99545.66
2022-09-14T02:55:18.610Z,99550.03
2022-09-14T02:57:46.272Z,99542.09
2022-09-14T03:00:13.964Z,99546.69
2022-09-14T03:02:41.628Z,99541.00
2022-09-14T03:05:09.368Z,99540.38
2022-09-14T03:07:37.161Z,99545.41
2022-09-14T03:10:04.825Z,99545.03
2022-09-14T03:12:32.693Z,99549.22
2022-09-14T03:15:00.546Z,99543.75
2022-09-14T03:17:28.318Z,99534.94
2022-09-14T03:19:56.324Z,99539.94
2022-09-14T03:22:24.041Z,99537.66
2022-09-14T03:24:51.921Z,99536.38
2022-09-14T03:27:19.594Z,99542.09
2022-09-14T03:29:48.499Z,99539.56
2022-09-14T03:32:16.186Z,99537.03
2022-09-14T03:34:43.949Z,99526.72
2022-09-14T03:37:11.714Z,99518.78
2022-09-14T03:39:39.426Z,99523.16
2022-09-14T03:42:07.124Z,99507.41
2022-09-14T03:44:34.773Z,99505.13
2022-09-14T03:47:02.478Z,99507.59
2022-09-14T03:49:30.160Z,99513.31
2022-09-14T03:51:59.888Z,99512.22
2022-09-14T03:54:27.699Z,99517.91
2022-09-14T03:56:55.412Z,99507.22
2022-09-14T03:59:23.089Z,99513.31
2022-09-14T04:01:50.864Z,99502.38
2022-09-14T04:04:18.630Z,99499.66
2022-09-14T04:06:46.300Z,99489.75
2022-09-14T04:09:13.945Z,99490.38
2022-09-14T04:11:41.620Z,99500.69
2022-09-14T04:14:09.303Z,99498.78
2022-09-14T04:16:37.162Z,99499.84
2022-09-14T04:19:04.841Z,99501.31
2022-09-14T04:21:32.517Z,99494.78
2022-09-14T04:24:16.466Z,99490.81
2022-09-14T04:26:44.329Z,99491.03
2022-09-14T04:29:12.691Z,99487.03
2022-09-14T04:31:40.361Z,99484.09
2022-09-14T04:34:08.111Z,99489.53
2022-09-14T04:36:35.849Z,99491.00
2022-09-14T04:39:03.544Z,99493.72
2022-09-14T04:41:31.398Z,99496.00
2022-09-14T04:43:59.371Z,99488.66
2022-09-14T04:46:36.544Z,99495.41
2022-09-14T04:49:04.930Z,99497.09
2022-09-14T04:51:32.750Z,99494.34
2022-09-14T04:56:35.888Z,99495.41
2022-09-14T04:59:04.374Z,99495.19
2022-09-14T05:01:32.262Z,99496.47
2022-09-14T05:04:00.013Z,99494.19
2022-09-14T05:06:27.745Z,99488.72
2022-09-14T05:08:55.510Z,99487.66
2022-09-14T05:11:23.263Z,99484.91
2022-09-14T05:13:50.962Z,99486.56
2022-09-14T05:16:18.681Z,99486.56
2022-09-14T05:18:46.456Z,99486.56
2022-09-14T05:21:14.159Z,99480.53
2022-09-14T05:23:42.234Z,99478.63
2022-09-14T05:26:09.954Z,99481.97
2022-09-14T05:28:37.593Z,99488.28
2022-09-14T05:31:05.401Z,99477.97
2022-09-14T05:33:33.227Z,99480.69
2022-09-14T05:36:00.926Z,99479.00
2022-09-14T05:38:28.568Z,99473.31
2022-09-14T05:40:56.263Z,99477.72
2022-09-14T05:43:23.924Z,99470.59
2022-09-14T05:45:51.754Z,99476.88
2022-09-14T05:48:19.435Z,99475.22
2022-09-14T05:50:47.125Z,99466.41
2022-09-14T05:53:14.776Z,99468.91
2022-09-14T05:55:42.490Z,99467.03
2022-09-14T05:58:10.785Z,99467.84
2022-09-14T06:00:39.473Z,99472.25
2022-09-14T06:03:07.711Z,99464.88
2022-09-14T06:05:36.240Z,99469.31
2022-09-14T06:08:05.250Z,99460.50
2022-09-14T06:10:32.913Z,99471.44
2022-09-14T06:13:00.612Z,99467.84
2022-09-14T06:15:28.295Z,99463.22
2022-09-14T06:17:55.999Z,99461.56
2022-09-14T06:20:24.023Z,99465.13
2022-09-14T06:22:51.745Z,99454.19
2022-09-14T06:25:19.455Z,99457.75
2022-09-14T06:27:47.142Z,99452.31
2022-09-14T06:30:16.367Z,99456.69
2022-09-14T06:32:44.026Z,99456.69
2022-09-14T06:35:12.582Z,99455.66
2022-09-14T06:37:40.396Z,99460.03
2022-09-14T06:40:08.407Z,99470.16
2022-09-14T06:42:36.084Z,99465.50
2022-09-14T06:45:04.425Z,99461.94
2022-09-14T06:47:32.125Z,99464.69
2022-09-14T06:49:59.803Z,99463.84
2022-09-14T06:52:31.714Z,99467.63
2022-09-14T06:55:01.300Z,99468.69
2022-09-14T06:57:28.980Z,99474.16
2022-09-14T06:59:56.687Z,99469.53
2022-09-14T07:02:24.493Z,99474.16
2022-09-14T07:04:52.493Z,99475.00
2022-09-14T07:07:20.332Z,99473.09
2022-09-14T07:09:48.121Z,99476.69
2022-09-14T07:12:15.747Z,99473.31
2022-09-14T07:14:43.383Z,99473.09
2022-09-14T07:17:11.053Z,99470.16
2022-09-14T07:19:38.917Z,99475.00
2022-09-14T07:22:06.669Z,99477.72
2022-09-14T07:24:34.509Z,99468.69
2022-09-14T07:27:02.161Z,99474.78
2022-09-14T07:29:29.827Z,99472.06
2022-09-14T07:31:57.485Z,99469.91
2022-09-14T07:34:25.471Z,99471.81
2022-09-14T07:36:53.162Z,99476.44
2022-09-14T07:39:20.834Z,99477.28
2022-09-14T07:41:49.088Z,99478.34
2022-09-14T07:44:16.731Z,99476.22
2022-09-14T07:46:44.403Z,99476.22
2022-09-14T07:49:12.096Z,99477.06
2022-09-14T07:51:40.005Z,99478.09
2022-09-14T07:54:07.774Z,99475.38
2022-09-14T07:56:35.616Z,99478.97
2022-09-14T07:59:30.774Z,99476.22
2022-09-14T08:01:51.762Z,99481.91
2022-09-14T08:04:19.611Z,99481.91
2022-09-14T08:06:47.246Z,99481.06
2022-09-14T08:09:15.351Z,99483.56
2022-09-14T08:11:43.111Z,99480.84
2022-09-14T08:14:11.470Z,99481.91
2022-09-14T08:16:40.533Z,99480.00
2022-09-14T08:19:10.782Z,99481.06
2022-09-14T08:21:42.782Z,99478.09
2022-09-14T08:24:13.514Z,99470.97
2022-09-14T08:26:41.367Z,99470.97
2022-09-14T08:29:09.055Z,99467.16
2022-09-14T08:31:36.755Z,99462.56
2022-09-14T08:34:04.695Z,99467.16
2022-09-14T08:36:32.703Z,99460.03
2022-09-14T08:39:01.371Z,99465.50
2022-09-14T08:41:29.212Z,99460.03
2022-09-14T08:43:57.052Z,99460.03
2022-09-14T08:46:24.760Z,99472.63
2022-09-14T08:48:52.392Z,99465.50
2022-09-14T08:51:20.066Z,99458.38
2022-09-14T08:53:47.767Z,99463.59
2022-09-14T08:56:15.466Z,99458.97
2022-09-14T08:58:48.095Z,99460.03
2022-09-14T09:01:16.249Z,99458.16
2022-09-14T09:03:44.028Z,99452.91
2022-09-14T09:06:15.654Z,99447.44
2022-09-14T09:08:43.736Z,99443.88
2022-09-14T09:11:11.411Z,99447.44
2022-09-14T09:13:40.240Z,99449.13
2022-09-14T09:16:08.002Z,99447.66
2022-09-14T09:18:35.912Z,99446.84
2022-09-14T09:21:03.650Z,99446.84
2022-09-14T09:23:33.134Z,99445.75
2022-09-14T09:26:00.841Z,99438.63
2022-09-14T09:28:28.566Z,99436.97
2022-09-14T09:30:56.241Z,99439.72
2022-09-14T09:33:24.009Z,99439.72
2022-09-14T09:35:51.762Z,99436.97
2022-09-14T09:38:21.587Z,99433.63
2022-09-14T09:40:49.280Z,99439.09
2022-09-14T09:43:28.963Z,99444.31
2022-09-14T09:46:06.212Z,99437.41
2022-09-14T09:48:33.878Z,99434.66
2022-09-14T09:51:01.568Z,99435.28
2022-09-14T09:53:29.270Z,99431.50
2022-09-14T09:55:57.088Z,99419.13
2022-09-14T09:58:24.915Z,99415.31
2022-09-14T10:00:52.573Z,99411.75
2022-09-14T10:03:20.494Z,99403.31
2022-09-14T10:05:48.221Z,99402.50
2022-09-14T10:08:15.948Z,99403.56
2022-09-14T10:10:44.703Z,99400.84
2022-09-14T10:13:12.489Z,99404.59
2022-09-14T10:15:40.813Z,99407.97
2022-09-14T10:18:08.994Z,99414.50
2022-09-14T10:20:36.622Z,99417.22
2022-09-14T10:23:04.321Z,99409.47
2022-09-14T10:25:32.014Z,99416.41
2022-09-14T10:27:59.985Z,99413.41
2022-09-14T10:30:27.635Z,99407.75
2022-09-14T10:32:55.387Z,99400.38
2022-09-14T10:35:23.043Z,99408.38
2022-09-14T10:37:52.005Z,99415.69
2022-09-14T10:40:19.715Z,99419.50
2022-09-14T10:42:47.437Z,99413.22
2022-09-14T10:45:15.455Z,99417.59
2022-09-14T10:47:43.190Z,99413.41
2022-09-14T10:50:11.552Z,99411.31
2022-09-14T10:52:39.259Z,99408.56
2022-09-14T10:55:06.970Z,99409.66
2022-09-14T10:57:34.690Z,99405.84
2022-09-14T11:00:02.320Z,99404.19
2022-09-14T11:02:30.047Z,99409.66
2022-09-14T11:04:57.828Z,99407.75
2022-09-14T11:07:25.902Z,99412.38
2022-09-14T11:09:54.096Z,99409.66
2022-09-14T11:12:21.818Z,99419.72
2022-09-14T11:14:49.488Z,99409.84
2022-09-14T11:17:17.135Z,99400.84
2022-09-14T11:19:44.869Z,99401.88
2022-09-14T11:22:12.546Z,99404.59
2022-09-14T11:24:40.188Z,99401.66
2022-09-14T11:27:07.870Z,99403.31
2022-09-14T11:29:36.074Z,99402.28
2022-09-14T11:32:20.501Z,99399.56
2022-09-14T11:34:54.642Z,99401.66
2022-09-14T11:37:22.345Z,99412.38
2022-09-14T11:39:50.072Z,99415.94
2022-09-14T11:42:17.783Z,99406.69
2022-09-14T11:44:47.023Z,99396.56
2022-09-14T11:47:14.747Z,99395.75
2022-09-14T11:49:42.509Z,99393.84
2022-09-14T11:52:10.192Z,99398.28
2022-09-14T11:54:37.900Z,99399.09
2022-09-14T11:57:05.611Z,99391.97
2022-09-14T11:59:33.349Z,99393.84
2022-09-14T12:02:01.032Z,99390.28
2022-09-14T12:04:28.678Z,99390.28
2022-09-14T12:06:56.322Z,99382.31
2022-09-14T12:09:25.085Z,99388.63
2022-09-14T12:11:52.717Z,99389.44
2022-09-14T12:14:20.367Z,99398.47
2022-09-14T12:16:48.047Z,99395.53
2022-09-14T12:19:15.750Z,99380.19
2022-09-14T12:21:43.425Z,99384.59
2022-09-14T12:24:11.100Z,99379.13
2022-09-14T12:26:38.750Z,99386.25
2022-09-14T12:29:06.457Z,99379.13
2022-09-14T12:31:36.111Z,99380.19
2022-09-14T12:34:04.718Z,99381.03
2022-09-14T12:36:32.391Z,99377.69
2022-09-14T12:39:00.145Z,99374.72
2022-09-14T12:41:28.049Z,99370.31
2022-09-14T12:43:55.678Z,99367.59
2022-09-14T12:46:23.446Z,99365.06
2022-09-14T12:48:53.152Z,99362.34
2022-09-14T12:51:20.858Z,99359.84
2022-09-14T12:53:48.639Z,99348.69
2022-09-14T12:56:16.296Z,99352.28
2022-09-14T12:58:44.122Z,99350.13
2022-09-14T13:01:12.098Z,99354.53
2022-09-14T13:03:39.898Z,99351.81
2022-09-14T13:06:07.585Z,99341.09
2022-09-14T13:08:35.256Z,99342.78
2022-09-14T13:11:02.959Z,99344.06
2022-09-14T13:13:30.752Z,99345.72
2022-09-14T13:15:58.535Z,99337.53
2022-09-14T13:18:27.410Z,99327.69
2022-09-14T13:20:55.073Z,99326.59
2022-09-14T13:23:22.797Z,99323.88
2022-09-14T13:25:50.458Z,99320.94
2022-09-14T13:28:18.106Z,99321.13
2022-09-14T13:30:45.984Z,99318.41
2022-09-14T13:33:13.718Z,99315.47
2022-09-14T13:35:41.445Z,99307.47
2022-09-14T13:38:09.399Z,99309.59
2022-09-14T13:40:37.079Z,99307.94
2022-09-14T13:43:04.761Z,99302.69
2022-09-14T13:45:32.421Z,99306.25
2022-09-14T13:48:00.133Z,99300.19
2022-09-14T13:50:27.863Z,99306.25
2022-09-14T13:53:04.095Z,99299.34
2022-09-14T13:55:32.699Z,99299.34
2022-09-14T13:58:00.376Z,99305.88
2022-09-14T14:00:28.053Z,99295.78
2022-09-14T14:02:55.750Z,99295.78
2022-09-14T14:05:23.633Z,99296.59
2022-09-14T14:07:51.355Z,99287.56
2022-09-14T14:10:20.635Z,99289.47
2022-09-14T14:12:50.770Z,99295.78
2022-09-14T14:15:18.640Z,99290.31
2022-09-14T14:17:46.408Z,99291.59
2022-09-14T14:20:14.103Z,99284.00
2022-09-14T14:22:41.852Z,99276.91
2022-09-14T14:25:13.649Z,99265.97
2022-09-14T14:27:41.864Z,99263.22
2022-09-14T14:30:09.542Z,99265.09
2022-09-14T14:32:37.171Z,99272.25
2022-09-14T14:35:04.894Z,99270.34
2022-09-14T14:37:33.095Z,99265.09
2022-09-14T14:40:00.878Z,99266.78
2022-09-14T14:42:28.636Z,99274.16
2022-09-14T14:44:56.338Z,99271.63
2022-09-14T14:47:24.008Z,99277.72
2022-09-14T14:49:51.648Z,99273.31
2022-09-14T14:52:19.878Z,99271.63
2022-09-14T14:54:47.544Z,99273.53
2022-09-14T14:57:15.708Z,99262.00
2022-09-14T14:59:43.399Z,99262.63
2022-09-14T15:02:11.201Z,99265.09
2022-09-14T15:04:39.038Z,99263.44
2022-09-14T15:07:06.869Z,99253.34
2022-09-14T15:09:34.642Z,99246.22
2022-09-14T15:12:02.432Z,99247.06
2022-09-14T15:14:30.258Z,99246.22
2022-09-14T15:17:00.304Z,99248.13
2022-09-14T15:19:28.219Z,99242.88
2022-09-14T15:22:00.747Z,99242.66
2022-09-14T15:24:29.284Z,99239.31
2022-09-14T15:26:57.778Z,99231.75
2022-09-14T15:29:25.452Z,99241.59
2022-09-14T15:31:53.156Z,99240.97
2022-09-14T15:34:20.906Z,99231.75
2022-09-14T15:36:51.170Z,99229.84
2022-09-14T15:39:18.815Z,99233.41
2022-09-14T15:41:46.516Z,99233.59
2022-09-14T15:44:15.499Z,99234.47
2022-09-14T15:46:44.545Z,99223.75
2022-09-14T15:49:12.613Z,99221.03
2022-09-14T15:51:40.243Z,99225.41
2022-09-14T15:54:07.999Z,99236.13
2022-09-14T15:56:35.812Z,99239.06
2022-09-14T15:59:03.549Z,99239.06
2022-09-14T16:01:31.317Z,99240.75
2022-09-14T16:03:58.996Z,99239.06
2022-09-14T16:06:26.706Z,99237.19
2022-09-14T16:08:54.901Z,99239.06
2022-09-14T16:11:22.644Z,99242.41
2022-09-14T16:13:50.374Z,99232.31
2022-09-14T16:16:18.142Z,99229.00
2022-09-14T16:18:45.947Z,99222.69
2022-09-14T16:21:14.407Z,99217.47
2022-09-14T16:23:42.079Z,99222.94
2022-09-14T16:26:10.477Z,99218.28
2022-09-14T16:28:38.197Z,99217.22
2022-09-14T16:31:06.120Z,99217.22
2022-09-14T16:33:34.124Z,99213.44
2022-09-14T16:36:01.988Z,99210.94
2022-09-14T16:38:29.801Z,99201.91
2022-09-14T16:40:57.454Z,99201.69
2022-09-14T16:43:25.426Z,99201.91
2022-09-14T16:45:53.313Z,99193.72
2022-09-14T16:48:21.125Z,99190.16
2022-09-14T16:50:48.866Z,99190.75
2022-09-14T16:53:16.623Z,99187.41
2022-09-14T16:55:44.455Z,99180.06
2022-09-14T16:58:12.068Z,99180.06
2022-09-14T17:00:44.002Z,99189.06
2022-09-14T17:03:11.953Z,99189.31
2022-09-14T17:05:39.801Z,99179.22
2022-09-14T17:08:07.387Z,99181.13
2022-09-14T17:10:35.128Z,99178.59
2022-09-14T17:13:02.886Z,99182.16
2022-09-14T17:15:33.936Z,99185.72
2022-09-14T17:18:01.719Z,99189.53
2022-09-14T17:20:29.887Z,99183.00
2022-09-14T17:22:57.545Z,99174.81
2022-09-14T17:25:25.643Z,99167.69
2022-09-14T17:27:53.355Z,99154.03
2022-09-14T17:30:21.184Z,99156.75
2022-09-14T17:32:49.022Z,99164.94
2022-09-14T17:35:16.671Z,99166.03
2022-09-14T17:37:45.473Z,99166.03
2022-09-14T17:40:13.388Z,99156.75
2022-09-14T17:42:42.510Z,99155.94
2022-09-14T17:45:10.189Z,99150.47
2022-09-14T17:47:38.180Z,99146.91
2022-09-14T17:50:06.426Z,99162.22
2022-09-14T17:52:34.136Z,99159.69
2022-09-14T17:55:02.083Z,99157.81
2022-09-14T17:57:29.774Z,99159.94
2022-09-14T17:59:57.727Z,99149.63
2022-09-14T18:02:25.704Z,99151.50
2022-09-14T18:04:53.462Z,99153.41
2022-09-14T18:07:21.177Z,99161.59
2022-09-14T18:09:49.168Z,99159.94
2022-09-14T18:12:17.924Z,99141.66
2022-09-14T18:17:33.637Z,99153.66
2022-09-14T18:20:02.404Z,99156.38
2022-09-14T18:22:30.311Z,99152.78
2022-09-14T18:24:58.019Z,99152.78
2022-09-14T18:27:25.785Z,99151.75
2022-09-14T18:29:53.732Z,99151.75
2022-09-14T18:32:21.414Z,99157.22
2022-09-14T18:34:49.110Z,99153.66
2022-09-14T18:37:16.745Z,99150.06
2022-09-14T18:39:44.422Z,99156.38
2022-09-14T18:42:12.301Z,99154.47
2022-09-14T18:44:40.140Z,99153.41
2022-09-14T18:47:07.871Z,99156.38
2022-09-14T18:49:35.536Z,99155.53
2022-09-14T18:52:03.186Z,99143.56
2022-09-14T18:54:30.959Z,99159.13
2022-09-14T18:56:58.769Z,99169.19
2022-09-14T18:59:26.734Z,99164.59
2022-09-14T19:01:54.728Z,99163.72
2022-09-14T19:04:22.444Z,99171.09
2022-09-14T19:06:50.301Z,99172.16
2022-09-14T19:09:18.136Z,99174.91
2022-09-14T19:11:45.807Z,99168.34
2022-09-14T19:14:13.867Z,99162.69
2022-09-14T19:16:41.622Z,99165.63
2022-09-14T19:19:09.548Z,99166.47
2022-09-14T19:21:43.256Z,99181.81
2022-09-14T19:24:10.932Z,99182.00
2022-09-14T19:26:44.632Z,99189.38
2022-09-14T19:29:14.098Z,99183.09
2022-09-14T19:31:41.976Z,99182.84
2022-09-14T19:34:09.880Z,99174.06
2022-09-14T19:36:37.713Z,99170.25
2022-09-14T19:39:05.440Z,99178.44
2022-09-14T19:41:33.432Z,99197.56
2022-09-14T19:44:01.099Z,99195.91
2022-09-14T19:46:28.758Z,99187.72
2022-09-14T19:48:56.493Z,99176.78
2022-09-14T19:51:25.355Z,99163.97
2022-09-14T19:53:53.022Z,99166.91
2022-09-14T19:56:20.870Z,99175.09
2022-09-14T19:58:48.569Z,99177.63
2022-09-14T20:01:16.268Z,99183.91
2022-09-14T20:03:44.001Z,99189.38
2022-09-14T20:06:11.823Z,99192.13
2022-09-14T20:08:39.630Z,99187.25
2022-09-14T20:11:07.272Z,99189.16
2022-09-14T20:13:35.046Z,99205.56
2022-09-14T20:16:03.816Z,99197.34
2022-09-14T20:18:31.729Z,99206.38
2022-09-14T20:20:59.890Z,99206.38
2022-09-14T20:23:27.760Z,99205.31
2022-09-14T20:25:55.766Z,99205.09
2022-09-14T20:28:23.604Z,99213.03
2022-09-14T20:30:51.412Z,99222.31
2022-09-14T20:33:19.223Z,99221.47
2022-09-14T20:35:47.252Z,99223.59
2022-09-14T20:38:15.012Z,99219.78
2022-09-14T20:40:42.840Z,99220.03
2022-09-14T20:43:10.604Z,99214.34
2022-09-14T20:45:38.458Z,99211.03
2022-09-14T20:48:06.212Z,99210.16
2022-09-14T20:50:36.143Z,99211.84
2022-09-14T20:53:04.035Z,99214.78
2022-09-14T20:55:31.863Z,99214.78
2022-09-14T20:57:59.655Z,99209.31
2022-09-14T21:00:27.442Z,99220.25
2022-09-14T21:02:55.500Z,99222.16
2022-09-14T21:05:23.335Z,99227.63
2022-09-14T21:07:56.167Z,99224.88
2022-09-14T21:10:29.110Z,99221.53
2022-09-14T21:12:57.185Z,99228.69
2022-09-14T21:15:25.097Z,99230.34
2022-09-14T21:17:53.007Z,99235.81
2022-09-14T21:20:20.796Z,99240.44
2022-09-14T21:22:48.824Z,99240.66
2022-09-14T21:25:16.597Z,99244.22
2022-09-14T21:27:44.495Z,99242.34
2022-09-14T21:30:12.454Z,99246.75
2022-09-14T21:32:40.256Z,99241.28
2022-09-14T21:35:08.442Z,99241.72
2022-09-14T21:37:36.136Z,99239.63
2022-09-14T21:40:03.907Z,99232.47
2022-09-14T21:42:31.634Z,99234.16
2022-09-14T21:44:59.520Z,99231.41
2022-09-14T21:47:27.272Z,99224.88
2022-09-14T21:49:55.202Z,99225.09
2022-09-14T21:52:22.904Z,99230.56
2022-09-14T21:54:50.969Z,99238.75
2022-09-14T21:57:18.753Z,99239.63
2022-09-14T21:59:46.777Z,99243.38
2022-09-14T22:02:15.420Z,99251.84
2022-09-14T22:04:43.297Z,99249.94
2022-09-14T22:07:11.094Z,99250.75
2022-09-14T22:09:39.161Z,99241.72
2022-09-14T22:12:06.924Z,99247.19
2022-09-14T22:14:35.029Z,99240.91
2022-09-14T22:17:02.775Z,99240.66
2022-09-14T22:19:30.518Z,99243.38
2022-09-14T22:21:58.447Z,99249.69
2022-09-14T22:24:26.204Z,99254.31
2022-09-14T22:26:54.332Z,99245.28
2022-09-14T22:29:22.120Z,99238.75
2022-09-14T22:31:49.924Z,99238.75
2022-09-14T22:34:17.637Z,99241.72
2022-09-14T22:36:45.514Z,99243.38
2022-09-14T22:39:13.421Z,99233.28
2022-09-14T22:41:41.248Z,99232.47
2022-09-14T22:44:09.031Z,99221.53
2022-09-14T22:46:37.079Z,99218.81
2022-09-14T22:49:04.930Z,99231.63
2022-09-14T22:51:32.695Z,99230.81
2022-09-14T22:54:00.885Z,99216.91
2022-09-14T22:56:28.819Z,99205.16
2022-09-14T22:58:56.659Z,99209.78
2022-09-14T23:01:24.403Z,99205.16
2022-09-14T23:03:53.181Z,99208.97
2022-09-14T23:06:20.876Z,99213.59
2022-09-14T23:08:48.686Z,99211.69
2022-09-14T23:11:16.413Z,99214.41
2022-09-14T23:13:44.150Z,99218.19
2022-09-14T23:16:11.808Z,99222.63
2022-09-14T23:18:39.531Z,99219.88
2022-09-14T23:21:07.239Z,99219.88
2022-09-14T23:23:35.212Z,99219.06
2022-09-14T23:26:02.887Z,99222.63
2022-09-14T23:28:30.744Z,99229.13
2022-09-14T23:30:58.516Z,99228.28
2022-09-14T23:33:26.442Z,99240.03
2022-09-14T23:36:00.844Z,99240.91
2022-09-14T23:38:28.585Z,99239.22
2022-09-14T23:40:58.495Z,99256.69
2022-09-14T23:43:26.222Z,99264.88
2022-09-14T23:45:53.939Z,99264.03
2022-09-14T23:48:22.638Z,99261.06
2022-09-14T23:50:50.338Z,99265.94
2022-09-14T23:53:18.267Z,99264.03
2022-09-14T23:55:46.097Z,99270.34
2022-09-14T23:58:13.776Z,99265.69
